createdAt,value
2019-01-05T00:00:19.419Z,10.37
2019-01-05T00:06:24.954Z,10.17
2019-01-05T00:09:25.637Z,9.00
2019-01-05T00:15:51.031Z,10.77
2019-01-05T00:18:52.303Z,9.47
2019-01-05T00:21:53.034Z,11.93
2019-01-05T00:24:54.084Z,11.23
2019-01-05T00:28:00.921Z,11.03
2019-01-05T00:34:12.497Z,12.40
2019-01-05T00:37:16.237Z,12.07
2019-01-05T00:43:28.171Z,19.87
2019-01-05T00:49:35.094Z,9.33
2019-01-05T00:52:36.245Z,11.67
2019-01-05T00:55:37.172Z,14.10
2019-01-05T00:58:37.948Z,14.17
2019-01-05T01:01:41.894Z,12.10
2019-01-05T01:07:53.748Z,12.70
2019-01-05T01:14:08.560Z,15.70
2019-01-05T01:20:18.093Z,12.87
2019-01-05T01:23:19.206Z,16.43
2019-01-05T01:26:22.870Z,14.30
2019-01-05T01:29:23.777Z,15.73
2019-01-05T01:32:23.040Z,14.87
2019-01-05T01:35:31.123Z,14.53
2019-01-05T01:38:31.857Z,13.43
2019-01-05T01:41:32.743Z,15.13
2019-01-05T01:44:33.719Z,17.57
2019-01-05T01:50:57.294Z,16.47
2019-01-05T01:53:58.459Z,17.00
2019-01-05T01:56:59.109Z,15.40
2019-01-05T02:00:26.296Z,16.70
2019-01-05T02:03:27.513Z,15.63
2019-01-05T02:06:28.694Z,22.13
2019-01-05T02:09:29.781Z,19.70
2019-01-05T02:12:30.245Z,21.37
2019-01-05T02:15:36.690Z,20.53
2019-01-05T02:18:37.631Z,22.03
2019-01-05T02:21:38.713Z,15.27
2019-01-05T02:24:39.724Z,16.20
2019-01-05T02:27:41.258Z,20.13
2019-01-05T02:30:42.297Z,19.33
2019-01-05T02:33:48.923Z,16.60
2019-01-05T02:36:49.731Z,16.83
2019-01-05T02:39:50.937Z,18.17
2019-01-05T02:42:54.918Z,15.00
2019-01-05T02:45:55.672Z,16.70
2019-01-05T02:49:03.043Z,15.70
2019-01-05T02:52:01.408Z,16.73
2019-01-05T02:55:02.324Z,20.63
2019-01-05T03:01:22.950Z,16.47
2019-01-05T03:04:23.817Z,17.60
2019-01-05T03:07:24.473Z,12.23
2019-01-05T03:10:25.312Z,18.00
2019-01-05T03:13:26.191Z,16.43
2019-01-05T03:16:29.610Z,16.33
2019-01-05T03:22:45.739Z,17.20
2019-01-05T03:25:49.123Z,16.00
2019-01-05T03:28:50.080Z,17.90
2019-01-05T03:31:51.029Z,19.10
2019-01-05T03:34:51.830Z,19.07
2019-01-05T03:37:52.927Z,18.10
2019-01-05T03:40:54.030Z,19.17
2019-01-05T03:43:54.299Z,19.10
2019-01-05T03:46:54.906Z,23.60
2019-01-05T03:49:58.697Z,19.10
2019-01-05T03:53:05.571Z,21.30
2019-01-05T03:56:01.538Z,19.87
2019-01-05T03:59:01.891Z,19.80
2019-01-05T04:02:02.837Z,20.70
2019-01-05T04:05:03.809Z,18.53
2019-01-05T04:08:04.143Z,20.47
2019-01-05T04:11:08.089Z,18.27
2019-01-05T04:14:11.957Z,18.77
2019-01-05T04:17:12.261Z,17.50
2019-01-05T04:20:13.066Z,17.40
2019-01-05T04:23:13.921Z,20.43
2019-01-05T04:26:18.251Z,20.03
2019-01-05T04:29:19.084Z,16.67
2019-01-05T04:32:19.718Z,18.47
2019-01-05T04:35:20.384Z,18.63
2019-01-05T04:38:20.958Z,16.20
2019-01-05T04:41:21.977Z,14.83
2019-01-05T04:47:27.287Z,16.60
2019-01-05T04:50:27.772Z,19.90
2019-01-05T04:53:28.662Z,18.00
2019-01-05T04:56:28.903Z,17.80
2019-01-05T04:59:30.015Z,17.03
2019-01-05T05:02:30.880Z,16.47
2019-01-05T05:08:46.316Z,18.03
2019-01-05T05:11:47.305Z,14.73
2019-01-05T05:17:53.105Z,19.33
2019-01-05T05:20:53.982Z,18.57
2019-01-05T05:23:54.930Z,21.53
2019-01-05T05:30:00.957Z,15.80
2019-01-05T05:33:07.956Z,16.07
2019-01-05T05:36:08.952Z,18.13
2019-01-05T05:39:09.937Z,17.77
2019-01-05T05:42:10.850Z,16.97
2019-01-05T05:45:11.477Z,17.57
2019-01-05T05:48:08.968Z,19.60
2019-01-05T05:51:13.047Z,18.80
2019-01-05T05:54:19.308Z,19.60
2019-01-05T06:00:28.534Z,18.17
2019-01-05T06:06:42.807Z,17.00
2019-01-05T06:09:44.012Z,17.30
2019-01-05T06:12:45.053Z,17.50
2019-01-05T06:15:49.127Z,18.40
2019-01-05T06:18:50.121Z,20.27
2019-01-05T06:21:39.969Z,14.80
2019-01-05T06:24:40.861Z,18.63
2019-01-05T06:27:41.801Z,18.70
2019-01-05T06:30:42.486Z,20.23
2019-01-05T06:33:43.187Z,19.57
2019-01-05T06:36:43.597Z,18.03
2019-01-05T06:39:43.828Z,17.40
2019-01-05T06:42:47.881Z,20.27
2019-01-05T06:45:48.926Z,17.77
2019-01-05T06:48:49.761Z,18.53
2019-01-05T06:51:50.749Z,14.23
2019-01-05T06:54:51.536Z,20.30
2019-01-05T06:57:51.851Z,18.50
2019-01-05T07:00:53.009Z,19.03
2019-01-05T07:03:53.902Z,18.53
2019-01-05T07:06:54.927Z,17.27
2019-01-05T07:09:56.088Z,15.53
2019-01-05T07:12:56.448Z,15.97
2019-01-05T07:19:30.109Z,13.57
2019-01-05T07:22:37.254Z,15.73
2019-01-05T07:25:32.158Z,17.53
2019-01-05T07:28:32.820Z,13.57
2019-01-05T07:31:33.462Z,14.20
2019-01-05T07:34:34.167Z,13.37
2019-01-05T07:37:34.916Z,13.20
2019-01-05T07:40:35.200Z,13.73
2019-01-05T07:46:47.994Z,14.13
2019-01-05T07:49:54.725Z,13.47
2019-01-05T07:52:55.506Z,10.20
2019-01-05T07:55:56.587Z,9.40
2019-01-05T07:58:57.326Z,7.10
2019-01-05T08:01:58.069Z,14.90
2019-01-05T08:08:58.508Z,8.13
2019-01-05T08:11:59.524Z,10.27
2019-01-05T08:15:00.664Z,10.87
2019-01-05T08:18:01.653Z,8.93
2019-01-05T08:20:55.587Z,8.90
2019-01-05T08:27:14.721Z,8.93
2019-01-05T08:30:15.729Z,9.87
2019-01-05T08:33:16.584Z,15.10
2019-01-05T08:36:17.791Z,10.97
2019-01-05T08:39:21.847Z,10.70
2019-01-05T08:42:22.109Z,10.23
2019-01-05T08:45:22.757Z,9.07
2019-01-05T08:48:23.649Z,10.73
2019-01-05T08:51:27.151Z,9.90
2019-01-05T08:54:39.685Z,10.40
2019-01-05T08:57:46.315Z,9.77
2019-01-05T09:03:42.053Z,12.37
2019-01-05T09:07:19.331Z,8.20
2019-01-05T09:10:53.990Z,7.93
2019-01-05T09:14:24.886Z,7.87
2019-01-05T09:18:10.367Z,7.13
2019-01-05T09:21:25.455Z,6.93
2019-01-05T09:24:57.191Z,5.20
2019-01-05T09:28:52.925Z,5.20
2019-01-05T09:32:08.365Z,5.90
2019-01-05T09:35:46.052Z,5.70
2019-01-05T09:39:07.128Z,5.43
2019-01-05T09:42:47.662Z,4.53
2019-01-05T09:46:12.285Z,4.40
2019-01-05T09:49:37.394Z,4.47
2019-01-05T09:53:01.768Z,4.70
2019-01-05T09:56:35.498Z,4.07
2019-01-05T10:00:04.998Z,3.80
2019-01-05T10:03:59.355Z,2.93
2019-01-05T10:07:39.334Z,3.40
2019-01-05T10:11:18.560Z,2.80
2019-01-05T10:15:17.225Z,2.63
2019-01-05T10:18:52.283Z,2.53
2019-01-05T10:22:32.570Z,2.90
2019-01-05T10:25:50.131Z,2.53
2019-01-05T10:29:27.720Z,2.90
2019-01-05T10:32:49.011Z,1.90
2019-01-05T10:36:13.213Z,2.80
2019-01-05T10:39:44.996Z,3.00
2019-01-05T10:43:14.428Z,2.10
2019-01-05T10:47:02.170Z,2.10
2019-01-05T10:50:56.041Z,2.20
2019-01-05T10:54:31.447Z,2.43
2019-01-05T10:58:07.381Z,2.20
2019-01-05T11:01:46.331Z,2.00
2019-01-05T11:05:05.493Z,2.23
2019-01-05T11:08:58.210Z,1.90
2019-01-05T11:12:39.551Z,2.00
2019-01-05T11:16:13.892Z,1.40
2019-01-05T11:19:42.077Z,1.97
2019-01-05T11:23:14.208Z,1.73
2019-01-05T11:27:01.863Z,2.70
2019-01-05T11:30:36.889Z,1.50
2019-01-05T11:33:54.943Z,1.50
2019-01-05T11:37:26.203Z,1.83
2019-01-05T11:40:56.985Z,1.40
2019-01-05T11:44:42.425Z,1.50
2019-01-05T11:48:14.317Z,1.47
2019-01-05T11:51:40.247Z,2.00
2019-01-05T11:55:32.891Z,1.57
2019-01-05T11:58:56.751Z,1.60
2019-01-05T12:02:19.510Z,1.30
2019-01-05T12:05:38.530Z,1.23
2019-01-05T12:09:30.680Z,1.53
2019-01-05T12:12:53.497Z,1.33
2019-01-05T12:16:45.527Z,1.80
2019-01-05T12:20:20.623Z,1.10
2019-01-05T12:24:01.634Z,1.70
2019-01-05T12:27:41.076Z,1.60
2019-01-05T12:31:31.856Z,1.50
2019-01-05T12:35:06.867Z,7.90
2019-01-05T12:38:43.271Z,2.30
2019-01-05T12:42:11.188Z,1.50
2019-01-05T12:45:30.814Z,1.33
2019-01-05T12:48:53.772Z,2.40
2019-01-05T12:52:42.920Z,2.93
2019-01-05T12:55:56.874Z,4.10
2019-01-05T12:59:25.404Z,1.70
2019-01-05T13:02:50.449Z,10.23
2019-01-05T13:06:33.947Z,1.73
2019-01-05T13:10:05.564Z,1.67
2019-01-05T13:13:51.352Z,1.70
2019-01-05T13:17:20.077Z,1.90
2019-01-05T13:20:49.240Z,1.70
2019-01-05T13:24:17.289Z,9.67
2019-01-05T13:27:42.449Z,1.77
2019-01-05T13:31:48.163Z,2.30
2019-01-05T13:35:22.161Z,2.33
2019-01-05T13:38:49.943Z,1.90
2019-01-05T13:42:17.241Z,3.80
2019-01-05T13:45:56.271Z,2.17
2019-01-05T13:49:21.986Z,1.90
2019-01-05T13:52:37.738Z,1.97
2019-01-05T13:55:29.727Z,3.80
2019-01-05T13:58:08.394Z,1.30
2019-01-05T14:00:57.483Z,2.20
2019-01-05T14:03:46.537Z,2.70
2019-01-05T14:06:38.649Z,1.90
2019-01-05T14:09:25.896Z,1.67
2019-01-05T14:12:30.441Z,1.70
2019-01-05T14:15:26.223Z,2.60
2019-01-05T14:18:13.901Z,1.10
2019-01-05T14:20:56.071Z,24.17
2019-01-05T14:23:51.317Z,4.50
2019-01-05T14:26:50.224Z,5.90
2019-01-05T14:29:37.692Z,1.83
2019-01-05T14:32:25.780Z,3.20
2019-01-05T14:35:14.886Z,1.77
2019-01-05T14:38:10.152Z,1.63
2019-01-05T14:40:56.040Z,1.80
2019-01-05T14:43:58.079Z,2.70
2019-01-05T14:46:44.126Z,3.40
2019-01-05T14:49:32.150Z,2.03
2019-01-05T14:52:21.268Z,2.30
2019-01-05T14:55:10.352Z,1.47
2019-01-05T14:57:59.443Z,1.97
2019-01-05T15:00:58.924Z,1.97
2019-01-05T15:03:46.428Z,2.07
2019-01-05T15:06:35.546Z,4.60
2019-01-05T15:09:26.910Z,1.87
2019-01-05T15:12:27.847Z,2.30
2019-01-05T15:15:20.096Z,2.60
2019-01-05T15:18:11.144Z,2.20
2019-01-05T15:20:59.032Z,1.97
2019-01-05T15:24:03.264Z,1.47
2019-01-05T15:26:58.294Z,2.10
2019-01-05T15:29:46.311Z,2.03
2019-01-05T15:32:35.496Z,1.83
2019-01-05T15:35:13.750Z,2.30
2019-01-05T15:38:02.884Z,2.07
2019-01-05T15:40:50.736Z,2.17
2019-01-05T15:43:58.551Z,1.80
2019-01-05T15:46:48.141Z,2.30
2019-01-05T15:49:40.133Z,2.00
2019-01-05T15:52:41.702Z,2.00
2019-01-05T15:55:43.971Z,2.67
2019-01-05T15:58:32.184Z,3.40
2019-01-05T16:01:27.644Z,3.07
2019-01-05T16:04:10.945Z,3.23
2019-01-05T16:06:58.398Z,2.50
2019-01-05T16:09:47.466Z,3.00
2019-01-05T16:12:35.023Z,2.43
2019-01-05T16:15:23.099Z,3.60
2019-01-05T16:18:11.973Z,4.23
2019-01-05T16:21:02.239Z,3.10
2019-01-05T16:24:05.062Z,4.70
2019-01-05T16:26:59.174Z,3.20
2019-01-05T16:29:46.341Z,3.37
2019-01-05T16:32:36.486Z,4.97
2019-01-05T16:35:43.775Z,2.33
2019-01-05T16:38:31.607Z,2.67
2019-01-05T16:41:20.877Z,5.00
2019-01-05T16:44:04.167Z,4.00
2019-01-05T16:46:59.345Z,3.67
2019-01-05T16:49:48.499Z,4.83
2019-01-05T16:52:46.944Z,3.30
2019-01-05T16:55:39.029Z,8.60
2019-01-05T16:58:39.927Z,5.97
2019-01-05T17:01:41.246Z,5.37
2019-01-05T17:04:41.502Z,5.70
2019-01-05T17:07:29.036Z,3.47
2019-01-05T17:10:24.199Z,5.87
2019-01-05T17:13:20.276Z,5.23
2019-01-05T17:16:00.188Z,3.17
2019-01-05T17:18:48.015Z,4.47
2019-01-05T17:21:38.263Z,4.30
2019-01-05T17:24:26.483Z,4.00
2019-01-05T17:27:16.691Z,3.57
2019-01-05T17:30:04.702Z,3.20
2019-01-05T17:33:00.229Z,3.13
2019-01-05T17:35:59.493Z,4.00
2019-01-05T17:38:57.844Z,3.40
2019-01-05T17:42:05.153Z,3.70
2019-01-05T17:44:58.815Z,2.63
2019-01-05T17:47:47.528Z,4.70
2019-01-05T17:50:45.074Z,3.57
2019-01-05T17:53:32.618Z,2.80
2019-01-05T17:56:39.639Z,2.33
2019-01-05T17:59:34.917Z,3.70
2019-01-05T18:02:39.434Z,4.17
2019-01-05T18:05:43.195Z,2.97
2019-01-05T18:08:44.447Z,3.50
2019-01-05T18:11:35.849Z,3.17
2019-01-05T18:14:45.592Z,3.20
2019-01-05T18:17:43.913Z,3.00
2019-01-05T18:20:36.139Z,2.67
2019-01-05T18:23:28.306Z,3.07
2019-01-05T18:26:17.458Z,3.23
2019-01-05T18:29:05.085Z,2.80
2019-01-05T18:32:13.918Z,3.03
2019-01-05T18:35:02.106Z,3.07
2019-01-05T18:37:58.266Z,5.53
2019-01-05T18:40:42.693Z,3.53
2019-01-05T18:43:30.387Z,2.83
2019-01-05T18:46:19.214Z,2.90
2019-01-05T18:49:07.129Z,2.60
2019-01-05T18:52:02.096Z,3.10
2019-01-05T18:55:00.913Z,3.30
2019-01-05T18:58:05.053Z,3.00
2019-01-05T19:00:53.780Z,2.90
2019-01-05T19:03:51.792Z,14.83
2019-01-05T19:06:59.510Z,3.97
2019-01-05T19:09:46.196Z,3.47
2019-01-05T19:12:38.536Z,3.70
2019-01-05T19:15:27.764Z,3.23
2019-01-05T19:18:27.206Z,3.27
2019-01-05T19:21:11.648Z,2.40
2019-01-05T19:23:59.586Z,2.93
2019-01-05T19:26:54.983Z,3.93
2019-01-05T19:29:59.090Z,2.50
2019-01-05T19:32:46.617Z,3.97
2019-01-05T19:35:35.880Z,3.87
2019-01-05T19:38:25.411Z,3.43
2019-01-05T19:41:15.014Z,2.87
2019-01-05T19:44:07.292Z,2.90
2019-01-05T19:46:54.943Z,3.37
2019-01-05T19:49:39.772Z,3.30
2019-01-05T19:52:47.596Z,3.00
2019-01-05T19:55:37.558Z,3.60
2019-01-05T19:58:35.914Z,3.00
2019-01-05T20:01:34.148Z,3.40
2019-01-05T20:04:22.043Z,3.30
2019-01-05T20:07:10.262Z,3.63
2019-01-05T20:10:06.194Z,6.03
2019-01-05T20:13:03.406Z,2.80
2019-01-05T20:15:53.790Z,2.57
2019-01-05T20:18:41.819Z,2.43
2019-01-05T20:21:37.147Z,2.77
2019-01-05T20:24:26.432Z,5.07
2019-01-05T20:27:25.028Z,2.30
2019-01-05T20:30:15.927Z,3.17
2019-01-05T20:33:10.963Z,2.70
2019-01-05T20:35:58.684Z,1.80
2019-01-05T20:39:00.197Z,3.00
2019-01-05T20:41:55.327Z,2.70
2019-01-05T20:44:50.621Z,2.73
2019-01-05T20:47:49.184Z,2.90
2019-01-05T20:50:42.113Z,2.80
2019-01-05T20:53:37.224Z,2.57
2019-01-05T20:56:41.719Z,2.40
2019-01-05T20:59:32.878Z,2.33
2019-01-05T21:02:26.357Z,2.57
2019-01-05T21:05:15.564Z,2.53
2019-01-05T21:08:22.816Z,2.50
2019-01-05T21:11:15.458Z,2.60
2019-01-05T21:14:21.563Z,2.73
2019-01-05T21:17:11.628Z,2.50
2019-01-05T21:20:18.850Z,3.67
2019-01-05T21:23:06.507Z,2.37
2019-01-05T21:25:59.120Z,2.97
2019-01-05T21:28:48.848Z,2.50
2019-01-05T21:31:40.877Z,3.33
2019-01-05T21:34:33.345Z,2.93
2019-01-05T21:37:21.022Z,3.60
2019-01-05T21:40:09.013Z,2.80
2019-01-05T21:42:57.963Z,3.30
2019-01-05T21:45:45.788Z,2.70
2019-01-05T21:48:39.402Z,2.60
2019-01-05T21:51:27.199Z,2.07
2019-01-05T21:54:19.389Z,3.40
2019-01-05T21:57:08.590Z,2.93
2019-01-05T22:00:15.819Z,2.00
2019-01-05T22:03:03.598Z,2.27
2019-01-05T22:05:51.303Z,3.37
2019-01-05T22:08:55.650Z,5.87
2019-01-05T22:11:44.989Z,5.37
2019-01-05T22:14:31.254Z,3.20
2019-01-05T22:17:20.287Z,3.07
2019-01-05T22:20:18.218Z,2.57
2019-01-05T22:23:03.128Z,2.27
2019-01-05T22:25:51.093Z,2.10
2019-01-05T22:28:40.183Z,3.43
2019-01-05T22:31:30.045Z,2.53
2019-01-05T22:34:16.258Z,2.03
2019-01-05T22:37:04.918Z,1.70
2019-01-05T22:39:55.285Z,2.00
2019-01-05T22:42:50.193Z,2.17
2019-01-05T22:45:38.065Z,1.57
2019-01-05T22:48:33.843Z,1.80
2019-01-05T22:51:21.615Z,1.80
2019-01-05T22:54:09.723Z,1.70
2019-01-05T22:57:01.692Z,1.23
2019-01-05T23:00:05.944Z,3.30
2019-01-05T23:03:04.469Z,2.93
2019-01-05T23:05:53.223Z,3.53
2019-01-05T23:08:45.731Z,4.43
2019-01-05T23:11:32.627Z,2.80
2019-01-05T23:14:20.243Z,3.63
2019-01-05T23:17:27.481Z,2.77
2019-01-05T23:20:33.428Z,2.53
2019-01-05T23:23:21.095Z,2.23
2019-01-05T23:26:16.053Z,2.23
2019-01-05T23:29:03.471Z,1.70
2019-01-05T23:31:45.318Z,1.40
2019-01-05T23:34:49.510Z,1.70
2019-01-05T23:37:44.476Z,1.20
2019-01-05T23:40:39.297Z,1.60
2019-01-05T23:43:28.320Z,1.50
2019-01-05T23:46:09.493Z,1.53
2019-01-05T23:48:53.202Z,1.33
2019-01-05T23:51:36.236Z,2.20
2019-01-05T23:54:23.964Z,1.47
2019-01-05T23:57:27.908Z,1.30
